createdAt,value
2022-08-22T00:02:58.168Z,78.20
2022-08-22T00:03:24.157Z,88.13
2022-08-22T00:04:24.261Z,88.23
2022-08-22T00:05:24.132Z,89.65
2022-08-22T00:06:24.144Z,89.65
2022-08-22T00:07:24.109Z,89.25
2022-08-22T00:08:24.106Z,89.45
2022-08-22T00:09:24.118Z,88.75
2022-08-22T00:10:25.429Z,88.54
2022-08-22T00:11:24.050Z,88.23
2022-08-22T00:12:24.055Z,88.34
2022-08-22T00:13:24.017Z,88.23
2022-08-22T00:14:24.028Z,88.54
2022-08-22T00:15:42.286Z,88.44
2022-08-22T00:16:23.986Z,89.86
2022-08-22T00:17:23.968Z,88.89
2022-08-22T00:18:23.951Z,88.28
2022-08-22T00:19:23.955Z,88.58
2022-08-22T00:20:28.114Z,88.38
2022-08-22T00:21:23.921Z,88.58
2022-08-22T00:22:23.974Z,88.58
2022-08-22T00:23:23.894Z,88.07
2022-08-22T00:24:23.888Z,88.18
2022-08-22T00:25:26.132Z,87.87
2022-08-22T00:26:23.843Z,88.07
2022-08-22T00:27:23.864Z,88.07
2022-08-22T00:28:23.815Z,88.07
2022-08-22T00:29:23.798Z,88.18
2022-08-22T00:30:23.779Z,88.07
2022-08-22T00:31:23.825Z,88.07
2022-08-22T00:32:23.754Z,88.38
2022-08-22T00:33:23.748Z,89.39
2022-08-22T00:34:23.761Z,89.50
2022-08-22T00:35:23.723Z,89.33
2022-08-22T00:36:23.710Z,88.82
2022-08-22T00:37:24.271Z,88.62
2022-08-22T00:38:23.670Z,89.03
2022-08-22T00:39:23.692Z,89.33
2022-08-22T00:40:23.684Z,89.13
2022-08-22T00:41:23.675Z,89.03
2022-08-22T00:42:31.680Z,88.73
2022-08-22T00:43:23.626Z,88.73
2022-08-22T00:44:23.596Z,89.03
2022-08-22T00:45:23.603Z,89.64
2022-08-22T00:46:23.608Z,90.25
2022-08-22T00:47:23.558Z,89.74
2022-08-22T00:48:23.610Z,90.39
2022-08-22T00:49:23.532Z,90.39
2022-08-22T00:50:23.512Z,89.98
2022-08-22T00:51:23.538Z,89.98
2022-08-22T00:52:23.489Z,90.19
2022-08-22T00:53:23.480Z,90.29
2022-08-22T00:54:23.488Z,90.29
2022-08-22T00:55:23.446Z,90.70
2022-08-22T00:56:23.437Z,90.70
2022-08-22T00:57:23.418Z,90.70
2022-08-22T00:58:23.406Z,90.70
2022-08-22T00:59:24.202Z,90.49
2022-08-22T01:00:23.378Z,90.74
2022-08-22T01:01:23.428Z,90.64
2022-08-22T01:02:23.378Z,90.64
2022-08-22T01:03:23.349Z,90.33
2022-08-22T01:04:23.346Z,90.23
2022-08-22T01:05:23.312Z,90.03
2022-08-22T01:06:23.299Z,90.13
2022-08-22T01:07:23.336Z,89.92
2022-08-22T01:08:23.277Z,89.92
2022-08-22T01:09:23.261Z,90.33
2022-08-22T01:10:23.238Z,90.44
2022-08-22T01:11:23.237Z,90.23
2022-08-22T01:12:23.248Z,89.92
2022-08-22T01:13:23.218Z,89.72
2022-08-22T01:14:34.271Z,89.72
2022-08-22T01:15:23.190Z,89.62
2022-08-22T01:16:23.168Z,89.72
2022-08-22T01:17:23.180Z,89.62
2022-08-22T01:18:23.169Z,89.52
2022-08-22T01:19:23.135Z,89.92
2022-08-22T01:20:23.114Z,89.62
2022-08-22T01:21:24.165Z,89.22
2022-08-22T01:22:23.082Z,89.01
2022-08-22T01:23:23.104Z,88.91
2022-08-22T01:24:24.113Z,88.71
2022-08-22T01:25:26.242Z,88.71
2022-08-22T01:26:23.027Z,88.91
2022-08-22T01:27:23.018Z,89.01
2022-08-22T01:28:23.287Z,89.11
2022-08-22T01:29:27.786Z,89.01
2022-08-22T01:30:23.066Z,88.81
2022-08-22T01:31:22.956Z,89.22
2022-08-22T01:32:22.945Z,89.31
2022-08-22T01:33:22.958Z,90.03
2022-08-22T01:34:22.930Z,89.92
2022-08-22T01:35:22.925Z,90.13
2022-08-22T01:36:22.912Z,90.74
2022-08-22T01:37:22.906Z,90.88
2022-08-22T01:38:22.932Z,90.88
2022-08-22T01:39:22.859Z,91.09
2022-08-22T01:40:22.891Z,90.78
2022-08-22T01:41:22.838Z,90.48
2022-08-22T01:42:22.833Z,90.88
2022-08-22T01:43:22.803Z,90.78
2022-08-22T01:44:22.839Z,90.48
2022-08-22T01:45:22.798Z,90.68
2022-08-22T01:46:22.761Z,90.58
2022-08-22T01:47:22.740Z,91.09
2022-08-22T01:48:22.729Z,90.78
2022-08-22T01:49:22.756Z,90.68
2022-08-22T01:50:22.697Z,90.99
2022-08-22T01:51:22.696Z,90.78
2022-08-22T01:52:22.669Z,90.68
2022-08-22T01:53:22.663Z,90.68
2022-08-22T01:54:22.685Z,90.99
2022-08-22T01:55:22.631Z,90.88
2022-08-22T01:56:22.621Z,91.09
2022-08-22T01:57:22.610Z,90.68
2022-08-22T01:58:22.610Z,90.78
2022-08-22T01:59:22.584Z,91.05
2022-08-22T02:00:34.721Z,90.48
2022-08-22T02:01:22.628Z,90.53
2022-08-22T02:02:22.553Z,90.94
2022-08-22T02:03:22.541Z,90.68
2022-08-22T02:04:22.516Z,90.37
2022-08-22T02:05:22.528Z,91.19
2022-08-22T02:06:22.484Z,91.09
2022-08-22T02:07:24.109Z,90.58
2022-08-22T02:08:22.473Z,90.48
2022-08-22T02:09:22.491Z,90.99
2022-08-22T02:10:22.460Z,90.68
2022-08-22T02:11:22.424Z,90.78
2022-08-22T02:12:22.407Z,90.48
2022-08-22T02:13:22.428Z,90.68
2022-08-22T02:14:22.380Z,90.99
2022-08-22T02:15:22.367Z,91.69
2022-08-22T02:16:22.378Z,91.90
2022-08-22T02:17:22.341Z,91.60
2022-08-22T02:18:22.325Z,92.00
2022-08-22T02:19:22.322Z,91.49
2022-08-22T02:20:22.298Z,90.99
2022-08-22T02:21:22.322Z,90.68
2022-08-22T02:22:22.268Z,90.68
2022-08-22T02:23:22.275Z,91.19
2022-08-22T02:24:43.262Z,91.09
2022-08-22T02:25:22.234Z,90.88
2022-08-22T02:26:22.242Z,90.78
2022-08-22T02:27:22.264Z,90.99
2022-08-22T02:28:22.206Z,90.58
2022-08-22T02:29:22.172Z,91.09
2022-08-22T02:30:22.162Z,90.58
2022-08-22T02:31:22.147Z,90.88
2022-08-22T02:32:22.182Z,91.49
2022-08-22T02:33:22.151Z,91.69
2022-08-22T02:34:22.143Z,91.49
2022-08-22T02:35:22.087Z,92.25
2022-08-22T02:36:22.085Z,92.55
2022-08-22T02:37:22.063Z,92.35
2022-08-22T02:38:22.079Z,92.65
2022-08-22T02:39:22.037Z,92.65
2022-08-22T02:40:22.138Z,93.47
2022-08-22T02:41:22.014Z,93.87
2022-08-22T02:42:21.999Z,94.38
2022-08-22T02:43:22.006Z,94.79
2022-08-22T02:44:21.973Z,94.28
2022-08-22T02:45:21.971Z,93.98
2022-08-22T02:46:21.946Z,94.08
2022-08-22T02:47:21.924Z,93.98
2022-08-22T02:48:21.949Z,93.77
2022-08-22T02:49:21.899Z,93.37
2022-08-22T02:50:21.912Z,93.37
2022-08-22T02:51:21.905Z,93.16
2022-08-22T02:52:21.867Z,92.96
2022-08-22T02:53:21.869Z,92.65
2022-08-22T02:54:21.837Z,92.45
2022-08-22T02:55:21.835Z,92.35
2022-08-22T02:56:21.808Z,92.21
2022-08-22T02:57:21.810Z,92.21
2022-08-22T02:58:21.786Z,92.51
2022-08-22T02:59:21.759Z,92.45
2022-08-22T03:00:27.692Z,92.41
2022-08-22T03:01:21.859Z,92.76
2022-08-22T03:02:21.737Z,92.41
2022-08-22T03:03:21.719Z,92.51
2022-08-22T03:04:21.706Z,92.51
2022-08-22T03:05:21.681Z,92.61
2022-08-22T03:06:22.219Z,92.82
2022-08-22T03:07:21.659Z,92.91
2022-08-22T03:08:21.645Z,92.55
2022-08-22T03:09:21.635Z,92.30
2022-08-22T03:10:21.612Z,91.90
2022-08-22T03:11:21.627Z,92.10
2022-08-22T03:12:21.603Z,92.82
2022-08-22T03:13:21.593Z,93.16
2022-08-22T03:14:21.589Z,93.57
2022-08-22T03:15:21.567Z,93.67
2022-08-22T03:16:21.541Z,93.37
2022-08-22T03:17:21.523Z,93.57
2022-08-22T03:18:21.515Z,93.47
2022-08-22T03:19:21.525Z,93.16
2022-08-22T03:20:21.503Z,93.06
2022-08-22T03:21:21.465Z,92.96
2022-08-22T03:22:21.457Z,93.06
2022-08-22T03:23:21.436Z,92.76
2022-08-22T03:24:21.447Z,92.45
2022-08-22T03:25:21.439Z,92.45
2022-08-22T03:26:21.401Z,92.86
2022-08-22T03:27:31.445Z,93.37
2022-08-22T03:28:21.386Z,93.77
2022-08-22T03:29:21.389Z,93.37
2022-08-22T03:30:21.385Z,93.16
2022-08-22T03:31:21.341Z,93.77
2022-08-22T03:32:21.324Z,94.43
2022-08-22T03:33:21.303Z,94.53
2022-08-22T03:34:21.300Z,94.73
2022-08-22T03:35:21.317Z,95.14
2022-08-22T03:36:21.272Z,95.34
2022-08-22T03:37:21.248Z,95.75
2022-08-22T03:38:21.272Z,95.85
2022-08-22T03:39:21.239Z,95.85
2022-08-22T03:40:21.367Z,95.65
2022-08-22T03:41:21.202Z,95.34
2022-08-22T03:42:21.221Z,95.04
2022-08-22T03:43:21.275Z,94.84
2022-08-22T03:44:21.160Z,94.53
2022-08-22T03:45:21.176Z,94.53
2022-08-22T03:46:21.129Z,94.53
2022-08-22T03:47:21.124Z,94.53
2022-08-22T03:48:21.140Z,94.23
2022-08-22T03:49:21.096Z,94.23
2022-08-22T03:50:21.073Z,94.12
2022-08-22T03:51:21.094Z,94.23
2022-08-22T03:52:21.044Z,94.23
2022-08-22T03:53:21.034Z,94.32
2022-08-22T03:54:21.021Z,94.73
2022-08-22T03:55:20.998Z,94.93
2022-08-22T03:56:21.024Z,94.73
2022-08-22T03:57:20.973Z,94.73
2022-08-22T03:58:28.388Z,95.04
2022-08-22T03:59:21.046Z,94.93
2022-08-22T04:00:20.933Z,95.20
2022-08-22T04:01:20.969Z,95.09
2022-08-22T04:02:42.338Z,95.20
2022-08-22T04:03:20.906Z,95.30
2022-08-22T04:04:20.935Z,95.30
2022-08-22T04:05:20.899Z,95.20
2022-08-22T04:06:20.870Z,94.69
2022-08-22T04:07:28.175Z,94.89
2022-08-22T04:08:25.588Z,95.61
2022-08-22T04:09:20.836Z,95.91
2022-08-22T04:10:20.805Z,96.11
2022-08-22T04:11:20.807Z,96.31
2022-08-22T04:12:20.775Z,96.31
2022-08-22T04:13:20.780Z,96.52
2022-08-22T04:14:20.750Z,96.31
2022-08-22T04:15:20.740Z,96.83
2022-08-22T04:16:20.750Z,96.92
2022-08-22T04:17:20.732Z,96.92
2022-08-22T04:18:20.698Z,96.92
2022-08-22T04:19:20.705Z,96.92
2022-08-22T04:20:20.669Z,96.92
2022-08-22T04:21:20.676Z,96.83
2022-08-22T04:22:20.673Z,96.92
2022-08-22T04:23:20.659Z,97.03
2022-08-22T04:24:20.613Z,96.88
2022-08-22T04:25:20.599Z,96.68
2022-08-22T04:26:20.611Z,96.47
2022-08-22T04:27:20.566Z,96.27
2022-08-22T04:28:20.561Z,95.86
2022-08-22T04:29:20.565Z,95.72
2022-08-22T04:30:20.533Z,95.51
2022-08-22T04:31:20.517Z,95.21
2022-08-22T04:32:20.496Z,95.31
2022-08-22T04:33:20.483Z,95.36
2022-08-22T04:34:20.504Z,95.66
2022-08-22T04:35:20.463Z,95.97
2022-08-22T04:36:20.478Z,96.07
2022-08-22T04:37:20.428Z,96.37
2022-08-22T04:38:20.421Z,96.58
2022-08-22T04:39:20.404Z,96.58
2022-08-22T04:40:20.444Z,96.88
2022-08-22T04:41:20.410Z,96.88
2022-08-22T04:42:35.352Z,96.98
2022-08-22T04:43:20.350Z,97.08
2022-08-22T04:44:20.339Z,96.98
2022-08-22T04:45:20.333Z,96.98
2022-08-22T04:46:20.334Z,96.68
2022-08-22T04:47:20.304Z,96.58
2022-08-22T04:48:20.284Z,96.37
2022-08-22T04:49:20.299Z,96.33
2022-08-22T04:50:20.252Z,96.33
2022-08-22T04:51:20.280Z,96.23
2022-08-22T04:52:20.267Z,96.12
2022-08-22T04:53:20.214Z,96.12
2022-08-22T04:54:20.215Z,96.12
2022-08-22T04:55:20.185Z,95.92
2022-08-22T04:56:20.200Z,95.82
2022-08-22T04:57:20.194Z,95.51
2022-08-22T04:58:20.143Z,95.41
2022-08-22T04:59:20.129Z,95.72
2022-08-22T05:00:20.120Z,95.47
2022-08-22T05:01:20.183Z,95.57
2022-08-22T05:02:20.127Z,95.37
2022-08-22T05:03:20.069Z,95.37
2022-08-22T05:04:20.065Z,95.17
2022-08-22T05:05:20.074Z,95.17
2022-08-22T05:06:20.041Z,95.06
2022-08-22T05:07:20.013Z,95.26
2022-08-22T05:08:20.006Z,95.26
2022-08-22T05:09:19.997Z,95.37
2022-08-22T05:10:20.012Z,95.06
2022-08-22T05:11:19.992Z,95.37
2022-08-22T05:12:19.951Z,95.17
2022-08-22T05:13:19.932Z,94.96
2022-08-22T05:14:19.968Z,94.86
2022-08-22T05:15:23.091Z,95.17
2022-08-22T05:16:19.923Z,94.86
2022-08-22T05:17:19.883Z,94.76
2022-08-22T05:18:19.865Z,94.66
2022-08-22T05:19:27.048Z,94.56
2022-08-22T05:20:19.853Z,94.56
2022-08-22T05:21:19.862Z,94.66
2022-08-22T05:22:19.826Z,94.76
2022-08-22T05:23:19.831Z,94.76
2022-08-22T05:24:19.816Z,94.61
2022-08-22T05:25:19.777Z,94.92
2022-08-22T05:26:19.796Z,95.02
2022-08-22T05:27:19.753Z,94.71
2022-08-22T05:28:19.745Z,94.61
2022-08-22T05:29:19.728Z,94.71
2022-08-22T05:30:19.703Z,95.22
2022-08-22T05:31:19.727Z,95.42
2022-08-22T05:32:19.684Z,95.63
2022-08-22T05:33:19.656Z,95.94
2022-08-22T05:34:19.657Z,96.14
2022-08-22T05:35:19.665Z,95.94
2022-08-22T05:36:19.634Z,95.53
2022-08-22T05:37:19.615Z,95.42
2022-08-22T05:38:19.641Z,95.63
2022-08-22T05:39:19.581Z,95.73
2022-08-22T05:40:19.678Z,95.83
2022-08-22T05:41:19.565Z,95.94
2022-08-22T05:42:19.546Z,96.23
2022-08-22T05:43:19.525Z,96.09
2022-08-22T05:44:19.543Z,96.09
2022-08-22T05:45:19.558Z,95.89
2022-08-22T05:46:19.490Z,95.68
2022-08-22T05:47:19.483Z,95.48
2022-08-22T05:48:19.471Z,95.18
2022-08-22T05:49:19.478Z,94.98
2022-08-22T05:50:19.442Z,94.22
2022-08-22T05:51:19.450Z,94.02
2022-08-22T05:52:19.416Z,93.91
2022-08-22T05:53:19.403Z,93.81
2022-08-22T05:54:19.398Z,93.81
2022-08-22T05:55:19.391Z,93.41
2022-08-22T05:56:19.358Z,93.41
2022-08-22T05:57:19.347Z,93.77
2022-08-22T05:58:19.329Z,93.77
2022-08-22T05:59:19.321Z,93.67
2022-08-22T06:00:21.572Z,93.57
2022-08-22T06:01:19.380Z,93.46
2022-08-22T06:02:19.314Z,93.46
2022-08-22T06:03:19.253Z,93.26
2022-08-22T06:04:19.294Z,93.37
2022-08-22T06:05:19.233Z,93.26
2022-08-22T06:06:19.268Z,93.06
2022-08-22T06:07:19.206Z,92.91
2022-08-22T06:08:19.193Z,93.02
2022-08-22T06:09:19.174Z,93.02
2022-08-22T06:10:19.170Z,92.82
2022-08-22T06:11:19.191Z,92.71
2022-08-22T06:12:21.669Z,92.10
2022-08-22T06:13:24.357Z,91.90
2022-08-22T06:14:19.154Z,91.80
2022-08-22T06:15:20.780Z,92.31
2022-08-22T06:16:19.115Z,92.31
2022-08-22T06:17:19.080Z,92.26
2022-08-22T06:18:19.057Z,92.06
2022-08-22T06:19:20.030Z,91.66
2022-08-22T06:20:19.044Z,91.35
2022-08-22T06:21:19.036Z,91.00
2022-08-22T06:22:19.033Z,90.91
2022-08-22T06:23:19.016Z,89.10
2022-08-22T06:24:18.980Z,87.54
2022-08-22T06:25:18.960Z,86.25
2022-08-22T06:26:20.813Z,84.49
2022-08-22T06:27:18.930Z,83.10
2022-08-22T06:28:18.927Z,82.86
2022-08-22T06:29:18.905Z,81.01
2022-08-22T06:30:18.897Z,80.16
2022-08-22T06:31:18.943Z,79.02
2022-08-22T06:32:44.513Z,78.78
2022-08-22T06:33:18.927Z,77.20
2022-08-22T06:34:18.856Z,75.42
2022-08-22T06:35:18.820Z,74.27
2022-08-22T06:36:20.640Z,72.94
2022-08-22T06:37:18.814Z,72.00
2022-08-22T06:38:18.786Z,72.16
2022-08-22T06:39:18.776Z,71.12
2022-08-22T06:40:18.853Z,69.76
2022-08-22T06:41:18.747Z,69.06
2022-08-22T06:42:18.738Z,68.52
2022-08-22T06:43:18.714Z,68.29
2022-08-22T06:44:18.763Z,67.16
2022-08-22T06:45:18.692Z,66.13
2022-08-22T06:46:18.677Z,66.03
2022-08-22T06:47:18.691Z,66.20
2022-08-22T06:48:18.668Z,64.20
2022-08-22T06:49:18.634Z,64.13
2022-08-22T06:50:18.628Z,64.53
2022-08-22T06:51:18.616Z,65.49
2022-08-22T06:52:18.694Z,66.82
2022-08-22T06:53:18.604Z,68.59
2022-08-22T06:54:18.569Z,70.16
2022-08-22T06:55:18.549Z,71.63
2022-08-22T06:56:18.532Z,72.67
2022-08-22T06:57:18.529Z,73.71
2022-08-22T06:58:18.529Z,75.55
2022-08-22T06:59:18.509Z,76.49
2022-08-22T07:00:18.493Z,77.23
2022-08-22T07:01:18.521Z,77.83
2022-08-22T07:02:18.461Z,78.67
2022-08-22T07:03:18.465Z,78.78
2022-08-22T07:04:18.426Z,79.82
2022-08-22T07:05:18.433Z,80.63
2022-08-22T07:06:18.411Z,80.73
2022-08-22T07:07:18.392Z,80.83
2022-08-22T07:08:18.398Z,81.43
2022-08-22T07:09:18.378Z,80.83
2022-08-22T07:10:18.347Z,81.13
2022-08-22T07:11:18.360Z,80.63
2022-08-22T07:12:18.352Z,80.52
2022-08-22T07:13:18.335Z,80.83
2022-08-22T07:14:18.305Z,81.33
2022-08-22T07:15:18.284Z,82.34
2022-08-22T07:16:18.289Z,80.02
2022-08-22T07:17:18.265Z,78.81
2022-08-22T07:18:18.283Z,79.52
2022-08-22T07:19:18.235Z,80.63
2022-08-22T07:20:18.211Z,80.73
2022-08-22T07:21:18.198Z,80.63
2022-08-22T07:22:18.220Z,80.83
2022-08-22T07:23:18.216Z,79.11
2022-08-22T07:24:18.180Z,79.62
2022-08-22T07:25:18.144Z,79.46
2022-08-22T07:26:18.133Z,80.46
2022-08-22T07:27:18.178Z,81.17
2022-08-22T07:28:18.133Z,81.03
2022-08-22T07:29:18.106Z,81.13
2022-08-22T07:30:27.520Z,81.33
2022-08-22T07:31:18.141Z,81.84
2022-08-22T07:32:18.058Z,81.73
2022-08-22T07:33:26.622Z,80.89
2022-08-22T07:34:18.053Z,80.63
2022-08-22T07:35:18.017Z,80.69
2022-08-22T07:36:18.007Z,80.39
2022-08-22T07:37:18.014Z,80.08
2022-08-22T07:38:17.965Z,80.08
2022-08-22T07:39:17.971Z,79.08
2022-08-22T07:40:17.966Z,80.99
2022-08-22T07:41:17.963Z,80.39
2022-08-22T07:42:17.922Z,79.48
2022-08-22T07:43:17.921Z,78.88
2022-08-22T07:44:17.879Z,79.74
2022-08-22T07:45:17.888Z,80.45
2022-08-22T07:46:17.863Z,80.65
2022-08-22T07:47:18.115Z,81.76
2022-08-22T07:48:25.556Z,80.85
2022-08-22T07:49:17.830Z,80.01
2022-08-22T07:50:17.801Z,79.41
2022-08-22T07:51:17.783Z,79.81
2022-08-22T07:52:17.803Z,79.10
2022-08-22T07:53:17.771Z,79.50
2022-08-22T07:54:17.765Z,80.11
2022-08-22T07:55:17.735Z,79.41
2022-08-22T07:56:17.715Z,78.50
2022-08-22T07:57:17.768Z,78.70
2022-08-22T07:58:17.696Z,78.27
2022-08-22T07:59:17.726Z,79.77
2022-08-22T08:00:17.671Z,79.17
2022-08-22T08:01:17.700Z,77.46
2022-08-22T08:02:17.689Z,77.16
2022-08-22T08:03:17.669Z,78.16
2022-08-22T08:04:17.647Z,78.36
2022-08-22T08:05:17.668Z,78.93
2022-08-22T08:06:17.611Z,78.22
2022-08-22T08:07:17.610Z,79.63
2022-08-22T08:08:17.567Z,79.33
2022-08-22T08:09:17.545Z,79.69
2022-08-22T08:10:17.527Z,78.69
2022-08-22T08:11:17.518Z,78.59
2022-08-22T08:12:17.523Z,77.89
2022-08-22T08:13:17.495Z,77.19
2022-08-22T08:14:17.472Z,77.15
2022-08-22T08:15:17.459Z,76.75
2022-08-22T08:16:17.481Z,77.59
2022-08-22T08:17:17.442Z,77.09
2022-08-22T08:18:17.431Z,77.89
2022-08-22T08:19:17.449Z,77.28
2022-08-22T08:20:17.404Z,78.69
2022-08-22T08:21:17.413Z,77.79
2022-08-22T08:22:17.377Z,76.89
2022-08-22T08:23:17.353Z,76.85
2022-08-22T08:24:17.362Z,77.55
2022-08-22T08:25:17.320Z,77.15
2022-08-22T08:26:17.382Z,76.75
2022-08-22T08:27:17.294Z,77.25
2022-08-22T08:28:17.293Z,78.02
2022-08-22T08:29:17.281Z,77.31
2022-08-22T08:30:17.258Z,78.31
2022-08-22T08:31:17.271Z,78.72
2022-08-22T08:32:17.263Z,77.98
2022-08-22T08:33:25.105Z,75.97
2022-08-22T08:34:17.237Z,76.17
2022-08-22T08:35:17.180Z,76.14
2022-08-22T08:36:17.189Z,77.44
2022-08-22T08:37:17.190Z,76.34
2022-08-22T08:38:17.171Z,76.14
2022-08-22T08:39:17.143Z,74.60
2022-08-22T08:40:17.180Z,74.40
2022-08-22T08:41:22.118Z,76.40
2022-08-22T08:42:17.161Z,74.90
2022-08-22T08:43:17.076Z,75.50
2022-08-22T08:44:17.092Z,75.10
2022-08-22T08:45:17.062Z,74.80
2022-08-22T08:46:17.040Z,76.20
2022-08-22T08:47:17.041Z,77.60
2022-08-22T08:48:17.016Z,77.36
2022-08-22T08:49:17.036Z,76.26
2022-08-22T08:50:16.993Z,75.46
2022-08-22T08:51:16.975Z,74.76
2022-08-22T08:52:16.959Z,74.66
2022-08-22T08:53:16.981Z,74.96
2022-08-22T08:54:16.930Z,75.83
2022-08-22T08:55:21.957Z,75.63
2022-08-22T08:56:19.786Z,75.13
2022-08-22T08:57:16.923Z,74.22
2022-08-22T08:58:17.738Z,74.43
2022-08-22T08:59:16.883Z,74.39
2022-08-22T09:00:16.860Z,73.49
2022-08-22T09:01:16.898Z,74.49
2022-08-22T09:02:20.644Z,74.19
2022-08-22T09:03:21.149Z,73.59
2022-08-22T09:04:16.831Z,73.75
2022-08-22T09:05:16.871Z,73.25
2022-08-22T09:06:16.858Z,73.56
2022-08-22T09:07:16.766Z,74.46
2022-08-22T09:08:16.754Z,73.46
2022-08-22T09:09:16.807Z,74.62
2022-08-22T09:10:16.721Z,74.22
2022-08-22T09:11:16.720Z,71.83
2022-08-22T09:12:16.759Z,70.23
2022-08-22T09:13:16.673Z,71.09
2022-08-22T09:14:16.671Z,69.43
2022-08-22T09:15:16.676Z,69.73
2022-08-22T09:16:16.638Z,70.03
2022-08-22T09:17:16.671Z,69.79
2022-08-22T09:18:18.188Z,70.09
2022-08-22T09:19:16.606Z,69.59
2022-08-22T09:20:19.374Z,70.09
2022-08-22T09:21:16.614Z,69.39
2022-08-22T09:22:16.586Z,68.89
2022-08-22T09:23:16.583Z,68.49
2022-08-22T09:24:16.558Z,69.89
2022-08-22T09:25:16.541Z,69.06
2022-08-22T09:26:16.510Z,71.15
2022-08-22T09:27:16.496Z,68.46
2022-08-22T09:28:16.512Z,67.86
2022-08-22T09:29:16.477Z,69.06
2022-08-22T09:30:16.457Z,69.73
2022-08-22T09:31:33.030Z,68.93
2022-08-22T09:32:16.462Z,70.29
2022-08-22T09:33:16.419Z,70.09
2022-08-22T09:34:23.833Z,69.96
2022-08-22T09:35:16.449Z,68.26
2022-08-22T09:36:16.373Z,67.83
2022-08-22T09:37:16.375Z,67.54
2022-08-22T09:38:16.352Z,67.93
2022-08-22T09:39:16.363Z,67.10
2022-08-22T09:41:16.317Z,66.71
2022-08-22T09:42:16.293Z,65.01
2022-08-22T09:43:21.089Z,65.01
2022-08-22T09:44:16.270Z,65.61
2022-08-22T09:45:16.245Z,67.10
2022-08-22T09:47:43.799Z,65.01
2022-08-22T09:47:48.703Z,65.18
2022-08-22T09:48:48.697Z,64.78
2022-08-22T09:49:48.673Z,65.48
2022-08-22T09:50:48.668Z,64.18
2022-08-22T09:51:48.644Z,65.08
2022-08-22T09:52:48.651Z,62.37
2022-08-22T09:53:48.651Z,64.36
2022-08-22T09:54:48.607Z,60.77
2022-08-22T09:55:48.597Z,63.26
2022-08-22T09:56:48.574Z,61.44
2022-08-22T09:57:48.552Z,62.04
2022-08-22T09:58:48.589Z,62.63
2022-08-22T09:59:48.540Z,62.07
2022-08-22T10:00:54.514Z,63.06
2022-08-22T10:01:48.512Z,62.26
2022-08-22T10:02:50.334Z,62.56
2022-08-22T10:03:48.505Z,63.06
2022-08-22T10:04:48.480Z,65.22
2022-08-22T10:05:48.484Z,64.52
2022-08-22T10:06:48.452Z,64.00
2022-08-22T10:07:51.513Z,61.21
2022-08-22T10:08:48.417Z,61.51
2022-08-22T10:09:48.488Z,61.91
2022-08-22T10:10:48.429Z,61.80
2022-08-22T10:11:48.400Z,61.80
2022-08-22T10:12:48.370Z,63.30
2022-08-22T10:13:48.351Z,62.37
2022-08-22T10:14:50.504Z,61.38
2022-08-22T10:15:48.347Z,62.18
2022-08-22T10:16:48.406Z,61.48
2022-08-22T10:17:48.287Z,60.96
2022-08-22T10:18:53.900Z,59.76
2022-08-22T10:19:48.277Z,60.46
2022-08-22T10:20:48.304Z,61.35
2022-08-22T10:21:48.248Z,58.44
2022-08-22T10:22:48.229Z,60.33
2022-08-22T10:23:48.210Z,60.03
2022-08-22T10:24:48.232Z,60.63
2022-08-22T10:25:48.181Z,59.31
2022-08-22T10:26:48.205Z,58.91
2022-08-22T10:27:48.160Z,60.30
2022-08-22T10:28:48.151Z,57.53
2022-08-22T10:29:48.124Z,57.79
2022-08-22T10:30:48.122Z,57.13
2022-08-22T10:31:59.267Z,56.63
2022-08-22T10:32:48.098Z,57.53
2022-08-22T10:33:48.107Z,57.62
2022-08-22T10:34:48.072Z,58.51
2022-08-22T10:35:48.054Z,59.61
2022-08-22T10:36:48.041Z,59.41
2022-08-22T10:37:48.042Z,58.78
2022-08-22T10:38:48.023Z,57.59
2022-08-22T10:39:48.086Z,56.51
2022-08-22T10:40:48.007Z,56.40
2022-08-22T10:41:48.013Z,57.40
2022-08-22T10:42:47.969Z,57.59
2022-08-22T10:43:47.956Z,57.69
2022-08-22T10:44:47.937Z,58.29
2022-08-22T10:45:47.920Z,56.90
2022-08-22T10:46:47.900Z,57.00
2022-08-22T10:47:47.916Z,57.40
2022-08-22T10:48:47.874Z,56.68
2022-08-22T10:49:51.289Z,56.97
2022-08-22T10:50:47.878Z,56.38
2022-08-22T10:51:47.845Z,56.77
2022-08-22T10:52:47.831Z,56.97
2022-08-22T10:53:47.826Z,56.68
2022-08-22T10:54:47.807Z,57.76
2022-08-22T10:55:47.811Z,56.57
2022-08-22T10:56:47.780Z,56.15
2022-08-22T10:57:52.573Z,56.65
2022-08-22T10:58:47.748Z,56.25
2022-08-22T10:59:47.847Z,56.35
2022-08-22T11:00:49.965Z,57.34
2022-08-22T11:01:47.744Z,57.34
2022-08-22T11:02:47.730Z,56.42
2022-08-22T11:03:47.696Z,56.72
2022-08-22T11:04:47.694Z,55.43
2022-08-22T11:05:50.059Z,55.53
2022-08-22T11:06:47.643Z,54.71
2022-08-22T11:07:48.571Z,54.61
2022-08-22T11:08:47.640Z,54.32
2022-08-22T11:09:47.653Z,53.95
2022-08-22T11:10:47.570Z,54.42
2022-08-22T11:11:47.636Z,53.13
2022-08-22T11:12:47.567Z,53.53
2022-08-22T11:13:47.570Z,54.14
2022-08-22T11:14:47.532Z,53.65
2022-08-22T11:15:47.531Z,54.37
2022-08-22T11:16:47.512Z,54.49
2022-08-22T11:17:53.808Z,56.28
2022-08-22T11:18:57.869Z,57.34
2022-08-22T11:19:47.490Z,57.04
2022-08-22T11:20:47.456Z,56.95
2022-08-22T11:21:47.452Z,56.65
2022-08-22T11:22:47.457Z,55.13
2022-08-22T11:23:47.415Z,55.56
2022-08-22T11:24:55.986Z,54.27
2022-08-22T11:25:53.723Z,55.49
2022-08-22T11:26:47.815Z,56.28
2022-08-22T11:27:47.377Z,55.02
2022-08-22T11:28:47.380Z,55.11
2022-08-22T11:29:47.372Z,56.51
2022-08-22T11:30:47.326Z,55.29
2022-08-22T11:31:51.516Z,56.95
2022-08-22T11:32:47.304Z,54.86
2022-08-22T11:33:47.795Z,54.54
2022-08-22T11:34:47.275Z,54.91
2022-08-22T11:35:47.259Z,55.21
2022-08-22T11:36:47.243Z,53.72
2022-08-22T11:37:47.293Z,54.22
2022-08-22T11:38:47.320Z,53.20
2022-08-22T11:39:47.311Z,52.69
2022-08-22T11:40:47.198Z,54.06
2022-08-22T11:41:52.494Z,53.47
2022-08-22T11:42:47.796Z,53.25
2022-08-22T11:43:47.254Z,53.05
2022-08-22T11:44:50.766Z,52.14
2022-08-22T11:45:47.129Z,51.15
2022-08-22T11:46:47.112Z,51.42
2022-08-22T11:47:47.099Z,52.41
2022-08-22T11:48:47.801Z,51.52
2022-08-22T11:49:47.084Z,50.43
2022-08-22T11:50:47.049Z,49.67
2022-08-22T11:51:47.047Z,49.40
2022-08-22T11:52:51.810Z,49.20
2022-08-22T11:53:47.033Z,50.76
2022-08-22T11:54:47.040Z,50.48
2022-08-22T11:55:47.026Z,48.61
2022-08-22T11:56:46.979Z,49.10
2022-08-22T11:57:46.997Z,48.02
2022-08-22T11:58:46.950Z,48.49
2022-08-22T11:59:47.922Z,48.88
2022-08-22T12:00:46.931Z,47.40
2022-08-22T12:01:46.971Z,46.41
2022-08-22T12:02:47.450Z,47.40
2022-08-22T12:03:46.896Z,49.27
2022-08-22T12:04:46.931Z,48.66
2022-08-22T12:05:46.873Z,48.27
2022-08-22T12:06:46.982Z,46.69
2022-08-22T12:07:50.514Z,47.35
2022-08-22T12:08:46.832Z,46.17
2022-08-22T12:09:47.786Z,46.56
2022-08-22T12:10:46.831Z,45.97
2022-08-22T12:11:46.821Z,45.28
2022-08-22T12:12:46.773Z,46.26
2022-08-22T12:13:46.755Z,46.86
2022-08-22T12:14:46.806Z,45.87
2022-08-22T12:15:46.731Z,45.18
2022-08-22T12:16:47.372Z,44.20
2022-08-22T12:17:54.891Z,44.39
2022-08-22T12:18:46.719Z,44.10
2022-08-22T12:20:12.710Z,45.18
2022-08-22T12:20:46.666Z,45.67
2022-08-22T12:21:46.656Z,44.29
2022-08-22T12:22:50.060Z,43.98
2022-08-22T12:23:49.429Z,45.36
2022-08-22T12:24:46.616Z,42.40
2022-08-22T12:25:46.602Z,42.58
2022-08-22T12:26:46.618Z,42.97
2022-08-22T12:27:48.162Z,41.81
2022-08-22T12:28:46.597Z,43.78
2022-08-22T12:29:46.590Z,42.79
2022-08-22T12:30:46.538Z,41.02
2022-08-22T12:31:46.539Z,41.91
2022-08-22T12:32:46.539Z,41.33
2022-08-22T12:33:46.495Z,42.32
2022-08-22T12:34:46.488Z,42.05
2022-08-22T12:35:46.469Z,43.73
2022-08-22T12:36:46.460Z,44.71
2022-08-22T12:37:52.786Z,42.72
2022-08-22T12:38:46.440Z,43.11
2022-08-22T12:39:46.488Z,42.82
2022-08-22T12:40:46.406Z,42.79
2022-08-22T12:41:46.704Z,43.88
2022-08-22T12:42:46.374Z,41.00
2022-08-22T12:43:46.406Z,41.09
2022-08-22T12:44:46.367Z,41.39
2022-08-22T12:45:46.350Z,42.68
2022-08-22T12:46:47.274Z,42.97
2022-08-22T12:47:46.322Z,41.27
2022-08-22T12:48:46.337Z,41.09
2022-08-22T12:49:52.321Z,42.08
2022-08-22T12:50:46.286Z,41.69
2022-08-22T12:51:46.828Z,39.81
2022-08-22T12:52:46.253Z,40.39
2022-08-22T12:53:46.240Z,41.09
2022-08-22T12:54:46.247Z,41.27
2022-08-22T12:55:46.250Z,41.47